Terminal Aerodrome Forecast
Issued by NWS

Home | Current Version | Previous Version | Text Only | Print | Product List | Glossary On
Versions: 1 2 3 4 5 6 7 8 9 10 11 12 13 14
470
FTUS46 KSEW 240520
TAFOLM
TAF
KOLM 240520Z 2406/2506 VRB03KT P6SM OVC080
     FM240800 VRB03KT P6SM SCT020 OVC040
     FM241800 22005KT P6SM SCT040
     FM250000 27007KT P6SM SCT040
     FM250400 VRB04KT P6SM SCT020 BKN040=

USA.gov is the U.S. government's official web portal to all federal, state and local government web resources and services.